createdAt,value
2019-04-30T00:00:39.158Z,6.29
2019-04-30T00:02:01.216Z,6.28
2019-04-30T00:03:20.336Z,6.31
2019-04-30T00:04:40.450Z,6.31
2019-04-30T00:05:57.491Z,6.28
2019-04-30T00:07:10.139Z,6.29
2019-04-30T00:08:30.006Z,6.2
2019-04-30T00:09:44.932Z,6.19
2019-04-30T00:11:00.089Z,6.17
2019-04-30T00:12:10.476Z,6.13
2019-04-30T00:13:25.918Z,6.15
2019-04-30T00:14:44.864Z,6.17
2019-04-30T00:16:03.053Z,6.17
2019-04-30T00:17:21.652Z,6.13
2019-04-30T00:18:53.223Z,6.06
2019-04-30T00:20:09.859Z,6.07
2019-04-30T00:21:25.003Z,6.09
2019-04-30T00:22:50.371Z,6.13
2019-04-30T00:24:06.076Z,6.05
2019-04-30T00:25:29.945Z,6.01
2019-04-30T00:26:44.914Z,5.97
2019-04-30T00:28:05.104Z,5.95
2019-04-30T00:29:30.102Z,5.98
2019-04-30T00:30:47.783Z,5.83
2019-04-30T00:32:10.420Z,5.84
2019-04-30T00:33:29.900Z,5.88
2019-04-30T00:34:45.568Z,5.92
2019-04-30T00:36:01.230Z,5.8
2019-04-30T00:37:21.367Z,5.88
2019-04-30T00:38:38.800Z,5.88
2019-04-30T00:39:57.966Z,5.74
2019-04-30T00:41:12.634Z,5.74
2019-04-30T00:42:31.268Z,5.76
2019-04-30T00:43:51.719Z,5.81
2019-04-30T00:45:09.809Z,5.74
2019-04-30T00:46:29.396Z,5.7
2019-04-30T00:47:49.004Z,5.72
2019-04-30T00:49:16.579Z,5.69
2019-04-30T00:50:41.056Z,5.69
2019-04-30T00:51:59.441Z,5.72
2019-04-30T00:53:18.982Z,5.76
2019-04-30T00:54:35.146Z,5.76
2019-04-30T00:55:50.711Z,5.77
2019-04-30T00:57:11.296Z,5.73
2019-04-30T00:58:33.250Z,5.74
2019-04-30T00:59:49.222Z,5.72
2019-04-30T01:01:04.783Z,5.64
2019-04-30T01:02:31.838Z,5.73
2019-04-30T01:03:49.536Z,5.7
2019-04-30T01:05:11.540Z,5.62
2019-04-30T01:06:31.120Z,5.7
2019-04-30T01:07:54.875Z,5.67
2019-04-30T01:09:12.290Z,5.67
2019-04-30T01:10:30.779Z,5.58
2019-04-30T01:11:49.548Z,5.64
2019-04-30T01:13:14.466Z,5.62
2019-04-30T01:14:33.037Z,5.58
2019-04-30T01:15:48.876Z,5.58
2019-04-30T01:17:03.667Z,5.56
2019-04-30T01:18:19.263Z,5.59
2019-04-30T01:19:39.509Z,5.58
2019-04-30T01:21:02.857Z,5.51
2019-04-30T01:22:28.003Z,5.52
2019-04-30T01:23:54.458Z,5.52
2019-04-30T01:25:18.672Z,5.43
2019-04-30T01:26:34.203Z,5.49
2019-04-30T01:27:51.296Z,5.46
2019-04-30T01:29:05.098Z,5.44
2019-04-30T01:30:23.646Z,5.49
2019-04-30T01:31:43.250Z,5.46
2019-04-30T01:33:03.380Z,5.44
2019-04-30T01:34:19.558Z,5.46
2019-04-30T01:35:36.097Z,5.37
2019-04-30T01:36:54.691Z,5.37
2019-04-30T01:38:14.028Z,5.37
2019-04-30T01:39:28.368Z,5.33
2019-04-30T01:40:42.738Z,5.31
2019-04-30T01:41:55.951Z,5.31
2019-04-30T01:43:15.525Z,5.31
2019-04-30T01:44:43.386Z,5.28
2019-04-30T01:46:01.616Z,5.22
2019-04-30T01:47:31.331Z,5.31
2019-04-30T01:48:43.521Z,5.22
2019-04-30T01:50:05.906Z,5.19
2019-04-30T01:51:23.051Z,5.16
2019-04-30T01:52:41.227Z,5.08
2019-04-30T01:53:50.962Z,5.15
2019-04-30T01:55:01.118Z,5.12
2019-04-30T01:56:11.586Z,5.08
2019-04-30T01:57:21.753Z,5.15
2019-04-30T01:58:35.911Z,5.16
2019-04-30T01:59:48.554Z,5.07
2019-04-30T02:00:59.355Z,5.01
2019-04-30T02:02:10.916Z,5.01
2019-04-30T02:03:21.786Z,5.05
2019-04-30T02:04:33.940Z,5.01
2019-04-30T02:05:44.571Z,5.01
2019-04-30T02:06:55.174Z,4.97
2019-04-30T02:08:08.365Z,4.98
2019-04-30T02:09:18.824Z,5.01
2019-04-30T02:10:30.940Z,5.05
2019-04-30T02:11:41.323Z,5.01
2019-04-30T02:12:51.819Z,5.05
2019-04-30T02:14:03.840Z,4.98
2019-04-30T02:15:14.394Z,4.97
2019-04-30T02:16:25.960Z,4.95
2019-04-30T02:17:36.367Z,5.01
2019-04-30T02:18:45.795Z,4.98
2019-04-30T02:20:01.620Z,4.87
2019-04-30T02:21:13.904Z,5
2019-04-30T02:22:24.773Z,5
2019-04-30T02:23:39.203Z,4.97
2019-04-30T02:24:51.102Z,4.89
2019-04-30T02:26:01.421Z,4.84
2019-04-30T02:27:11.594Z,4.86
2019-04-30T02:28:23.570Z,4.86
2019-04-30T02:29:34.545Z,4.87
2019-04-30T02:30:45.351Z,4.76
2019-04-30T02:32:00.454Z,4.87
2019-04-30T02:33:12.048Z,4.83
2019-04-30T02:34:30.013Z,4.76
2019-04-30T02:35:43.024Z,4.68
2019-04-30T02:36:55.295Z,4.79
2019-04-30T02:38:06.876Z,4.82
2019-04-30T02:39:20.154Z,4.79
2019-04-30T02:40:32.696Z,4.67
2019-04-30T02:41:50.429Z,4.74
2019-04-30T02:43:05.841Z,4.71
2019-04-30T02:44:19.373Z,4.71
2019-04-30T02:45:32.334Z,4.7
2019-04-30T02:46:45.511Z,4.74
2019-04-30T02:47:59.296Z,4.64
2019-04-30T02:49:10.634Z,4.7
2019-04-30T02:50:29.203Z,4.68
2019-04-30T02:51:42.403Z,4.63
2019-04-30T02:52:55.371Z,4.66
2019-04-30T02:54:12.327Z,4.58
2019-04-30T02:55:29.620Z,4.66
2019-04-30T02:56:42.383Z,4.57
2019-04-30T02:57:54.681Z,4.63
2019-04-30T02:59:10.329Z,4.57
2019-04-30T03:00:22.988Z,4.67
2019-04-30T03:01:40.178Z,4.57
2019-04-30T03:02:52.868Z,4.52
2019-04-30T03:04:05.413Z,4.61
2019-04-30T03:05:20.144Z,4.57
2019-04-30T03:06:32.869Z,4.52
2019-04-30T03:07:45.690Z,4.56
2019-04-30T03:09:03.632Z,4.57
2019-04-30T03:10:15.541Z,4.48
2019-04-30T03:11:29.742Z,4.5
2019-04-30T03:12:42.799Z,4.48
2019-04-30T03:13:55.224Z,4.5
2019-04-30T03:15:09.668Z,4.49
2019-04-30T03:16:20.666Z,4.5
2019-04-30T03:17:31.828Z,4.48
2019-04-30T03:18:42.020Z,4.48
2019-04-30T03:19:55.088Z,4.52
2019-04-30T03:21:12.248Z,4.45
2019-04-30T03:22:25.210Z,4.38
2019-04-30T03:23:39.091Z,4.45
2019-04-30T03:24:50.045Z,4.4
2019-04-30T03:26:02.246Z,4.49
2019-04-30T03:27:17.335Z,4.39
2019-04-30T03:28:32.601Z,4.39
2019-04-30T03:29:45.503Z,4.4
2019-04-30T03:31:07.067Z,4.4
2019-04-30T03:32:24.770Z,4.46
2019-04-30T03:33:51.943Z,4.34
2019-04-30T03:35:12.183Z,4.36
2019-04-30T03:36:32.130Z,4.31
2019-04-30T03:37:44.524Z,4.39
2019-04-30T03:38:59.838Z,4.38
2019-04-30T03:40:15.241Z,4.34
2019-04-30T03:41:30.136Z,4.34
2019-04-30T03:42:46.336Z,4.28
2019-04-30T03:44:13.704Z,4.24
2019-04-30T03:45:36.971Z,4.3
2019-04-30T03:46:49.757Z,4.25
2019-04-30T03:48:02.744Z,4.32
2019-04-30T03:49:20.169Z,4.27
2019-04-30T03:50:53.103Z,4.24
2019-04-30T03:52:09.966Z,4.28
2019-04-30T03:53:24.923Z,4.13
2019-04-30T03:54:40.549Z,4.16
2019-04-30T03:55:52.806Z,4.22
2019-04-30T03:57:05.414Z,4.18
2019-04-30T03:58:21.149Z,4.14
2019-04-30T03:59:32.597Z,4.14
2019-04-30T04:00:50.180Z,4.12
2019-04-30T04:02:02.017Z,4.14
2019-04-30T04:03:20.028Z,4.12
2019-04-30T04:04:30.905Z,4.14
2019-04-30T04:05:42.442Z,4
2019-04-30T04:06:54.708Z,4.06
2019-04-30T04:08:05.506Z,3.99
2019-04-30T04:09:16.970Z,4
2019-04-30T04:10:32.143Z,4.09
2019-04-30T04:11:44.396Z,4.04
2019-04-30T04:12:56.161Z,4.14
2019-04-30T04:14:08.838Z,4.04
2019-04-30T04:15:19.896Z,4.1
2019-04-30T04:16:34.291Z,4.02
2019-04-30T04:17:46.447Z,4.06
2019-04-30T04:18:59.433Z,4.07
2019-04-30T04:20:15.611Z,4
2019-04-30T04:21:29.918Z,4
2019-04-30T04:22:42.648Z,4.1
2019-04-30T04:23:54.937Z,4.12
2019-04-30T04:25:05.488Z,4.12
2019-04-30T04:26:22.483Z,4.1
2019-04-30T04:27:35.344Z,4.13
2019-04-30T04:28:49.577Z,4.14
2019-04-30T04:30:01.006Z,4.12
2019-04-30T04:31:12.041Z,4.18
2019-04-30T04:32:30.694Z,4.16
2019-04-30T04:33:42.055Z,4.1
2019-04-30T04:35:00.133Z,4.18
2019-04-30T04:36:11.680Z,4.14
2019-04-30T04:37:22.590Z,4.16
2019-04-30T04:38:35.097Z,4.2
2019-04-30T04:39:49.988Z,4.22
2019-04-30T04:41:05.313Z,4.25
2019-04-30T04:42:19.345Z,4.27
2019-04-30T04:43:30.034Z,4.25
2019-04-30T04:44:42.161Z,4.24
2019-04-30T04:45:55.298Z,4.31
2019-04-30T04:47:09.875Z,4.18
2019-04-30T04:48:29.731Z,4.32
2019-04-30T04:49:42.268Z,4.28
2019-04-30T04:50:59.983Z,4.39
2019-04-30T04:52:12.749Z,4.4
2019-04-30T04:53:26.297Z,4.36
2019-04-30T04:54:39.954Z,4.4
2019-04-30T04:55:52.402Z,4.42
2019-04-30T04:57:23.739Z,4.36
2019-04-30T04:58:35.850Z,4.34
2019-04-30T04:59:49.834Z,4.43
2019-04-30T05:01:01.715Z,4.45
2019-04-30T05:02:14.735Z,4.49
2019-04-30T05:03:27.140Z,4.5
2019-04-30T05:04:39.980Z,4.45
2019-04-30T05:05:52.384Z,4.56
2019-04-30T05:07:06.839Z,4.5
2019-04-30T05:08:18.476Z,4.5
2019-04-30T05:09:28.628Z,4.53
2019-04-30T05:10:39.177Z,4.56
2019-04-30T05:11:51.150Z,4.63
2019-04-30T05:13:01.449Z,4.57
2019-04-30T05:14:13.565Z,4.61
2019-04-30T05:15:24.378Z,4.57
2019-04-30T05:16:34.793Z,4.67
2019-04-30T05:17:46.479Z,4.67
2019-04-30T05:18:58.578Z,4.7
2019-04-30T05:20:09.951Z,4.84
2019-04-30T05:21:21.303Z,4.79
2019-04-30T05:22:31.851Z,4.79
2019-04-30T05:23:45.003Z,4.83
2019-04-30T05:24:58.626Z,4.86
2019-04-30T05:26:10.922Z,4.9
2019-04-30T05:27:22.239Z,5.01
2019-04-30T05:28:32.650Z,4.95
2019-04-30T05:29:44.528Z,4.97
2019-04-30T05:30:55.160Z,5.02
2019-04-30T05:32:06.977Z,5.02
2019-04-30T05:33:18.592Z,5.01
2019-04-30T05:34:28.853Z,5.15
2019-04-30T05:35:38.905Z,5.08
2019-04-30T05:36:49.052Z,5.12
2019-04-30T05:37:59.255Z,5.12
2019-04-30T05:39:11.148Z,5.19
2019-04-30T05:40:21.485Z,5.13
2019-04-30T05:41:31.469Z,5.22
2019-04-30T05:42:43.393Z,5.29
2019-04-30T05:43:54.922Z,5.28
2019-04-30T05:45:06.729Z,5.38
2019-04-30T05:46:19.581Z,5.41
2019-04-30T05:47:31.546Z,5.43
2019-04-30T05:48:42.166Z,5.54
2019-04-30T05:49:53.829Z,5.44
2019-04-30T05:51:04.027Z,5.52
2019-04-30T05:52:16.494Z,5.54
2019-04-30T05:53:28.638Z,5.56
2019-04-30T05:54:39.105Z,5.61
2019-04-30T05:55:49.430Z,5.74
2019-04-30T05:56:59.385Z,5.58
2019-04-30T05:58:11.702Z,5.72
2019-04-30T05:59:25.056Z,5.64
2019-04-30T06:00:36.632Z,5.74
2019-04-30T06:01:53.473Z,5.84
2019-04-30T06:03:04.502Z,5.91
2019-04-30T06:04:14.788Z,5.9
2019-04-30T06:05:24.735Z,5.9
2019-04-30T06:06:38.833Z,5.94
2019-04-30T06:07:49.515Z,5.92
2019-04-30T06:09:30.320Z,6.07
2019-04-30T06:10:44.432Z,6.05
2019-04-30T06:11:59.045Z,6.1
2019-04-30T06:13:09.663Z,6.12
2019-04-30T06:14:21.028Z,6.16
2019-04-30T06:15:31.551Z,6.22
2019-04-30T06:16:41.767Z,6.2
2019-04-30T06:18:14.145Z,6.26
2019-04-30T06:19:25.658Z,6.36
2019-04-30T06:20:38.523Z,6.28
2019-04-30T06:21:49.121Z,6.32
2019-04-30T06:23:12.020Z,6.36
2019-04-30T06:24:23.504Z,6.44
2019-04-30T06:26:09.530Z,6.57
2019-04-30T06:27:21.465Z,6.57
2019-04-30T06:28:31.691Z,6.6
2019-04-30T06:29:41.547Z,6.57
2019-04-30T06:30:51.726Z,6.62
2019-04-30T06:32:03.505Z,6.75
2019-04-30T06:33:16.526Z,6.7
2019-04-30T06:34:27.030Z,6.74
2019-04-30T06:35:39.053Z,6.74
2019-04-30T06:36:57.088Z,6.87
2019-04-30T06:38:08.546Z,6.87
2019-04-30T06:39:18.855Z,6.83
2019-04-30T06:40:29.267Z,6.95
2019-04-30T06:41:41.001Z,6.95
2019-04-30T06:42:52.048Z,7.04
2019-04-30T06:44:05.765Z,7.04
2019-04-30T06:45:18.976Z,7.14
2019-04-30T06:46:31.026Z,7.14
2019-04-30T06:47:41.436Z,7.19
2019-04-30T06:48:53.945Z,7.28
2019-04-30T06:50:05.976Z,7.21
2019-04-30T06:51:18.789Z,7.22
2019-04-30T06:52:29.314Z,7.32
2019-04-30T06:53:39.253Z,7.32
2019-04-30T06:54:49.808Z,7.36
2019-04-30T06:56:01.496Z,7.44
2019-04-30T06:57:14.258Z,7.48
2019-04-30T06:58:25.202Z,7.55
2019-04-30T06:59:36.844Z,7.5
2019-04-30T07:00:49.481Z,7.62
2019-04-30T07:02:01.424Z,7.59
2019-04-30T07:03:12.156Z,7.62
2019-04-30T07:04:24.390Z,7.66
2019-04-30T07:05:34.128Z,7.62
2019-04-30T07:06:52.968Z,7.69
2019-04-30T07:08:14.567Z,7.7
2019-04-30T07:09:31.522Z,7.87
2019-04-30T07:11:13.731Z,7.81
2019-04-30T07:12:34.351Z,7.93
2019-04-30T07:13:46.292Z,8.03
2019-04-30T07:14:59.309Z,8.03
2019-04-30T07:16:11.133Z,8.05
2019-04-30T07:17:21.744Z,8.05
2019-04-30T07:18:33.121Z,8.06
2019-04-30T07:20:02.170Z,8.14
2019-04-30T07:21:13.579Z,8.21
2019-04-30T07:22:58.764Z,8.31
2019-04-30T07:24:11.935Z,8.34
2019-04-30T07:25:24.040Z,8.44
2019-04-30T07:26:34.599Z,8.52
2019-04-30T07:27:46.580Z,8.66
2019-04-30T07:29:04.724Z,8.66
2019-04-30T07:30:15.126Z,8.59
2019-04-30T07:31:29.516Z,8.63
2019-04-30T07:32:41.179Z,8.68
2019-04-30T07:33:56.631Z,8.72
2019-04-30T07:35:09.289Z,8.77
2019-04-30T07:36:19.586Z,8.77
2019-04-30T07:37:54.456Z,8.84
2019-04-30T07:39:12.576Z,8.92
2019-04-30T07:40:24.241Z,8.92
2019-04-30T07:41:36.098Z,8.93
2019-04-30T07:42:51.636Z,8.96
2019-04-30T07:44:01.872Z,8.86
2019-04-30T07:45:12.215Z,8.95
2019-04-30T07:46:24.685Z,8.95
2019-04-30T07:47:35.117Z,9.03
2019-04-30T07:48:47.013Z,8.96
2019-04-30T07:50:03.259Z,8.97
2019-04-30T07:51:20.918Z,8.97
2019-04-30T07:53:05.459Z,9.08
2019-04-30T07:54:21.305Z,9.12
2019-04-30T07:55:31.715Z,9.13
2019-04-30T07:56:45.804Z,9.16
2019-04-30T07:57:59.108Z,9.19
2019-04-30T07:59:10.994Z,9.19
2019-04-30T08:00:21.899Z,9.24
2019-04-30T08:01:34.297Z,9.3
2019-04-30T08:03:06.104Z,9.49
2019-04-30T08:04:21.236Z,9.54
2019-04-30T08:05:32.354Z,9.64
2019-04-30T08:06:42.585Z,9.67
2019-04-30T08:07:55.336Z,9.69
2019-04-30T08:09:42.235Z,9.91
2019-04-30T08:10:55.840Z,9.91
2019-04-30T08:12:08.836Z,9.99
2019-04-30T08:13:40.407Z,10.17
2019-04-30T08:14:54.562Z,10.1
2019-04-30T08:16:04.800Z,10.27
2019-04-30T08:17:15.095Z,10.3
2019-04-30T08:18:26.569Z,10.24
2019-04-30T08:19:38.438Z,10.31
2019-04-30T08:20:51.472Z,10.39
2019-04-30T08:22:03.340Z,10.34
2019-04-30T08:23:39.525Z,10.39
2019-04-30T08:24:51.517Z,10.43
2019-04-30T08:26:01.048Z,10.49
2019-04-30T08:27:11.953Z,10.58
2019-04-30T08:28:23.460Z,10.64
2019-04-30T08:29:35.523Z,10.72
2019-04-30T08:30:48.788Z,10.86
2019-04-30T08:31:59.304Z,10.9
2019-04-30T08:33:11.791Z,10.87
2019-04-30T08:34:22.623Z,10.95
2019-04-30T08:35:34.576Z,10.97
2019-04-30T08:36:45.153Z,10.9
2019-04-30T08:37:56.562Z,10.97
2019-04-30T08:39:06.778Z,10.98
2019-04-30T08:40:19.002Z,11.02
2019-04-30T08:41:29.402Z,11.13
2019-04-30T08:42:42.887Z,11.2
2019-04-30T08:43:54.903Z,11.25
2019-04-30T08:45:05.211Z,11.27
2019-04-30T08:46:18.760Z,11.26
2019-04-30T08:47:31.527Z,11.37
2019-04-30T08:48:56.255Z,11.51
2019-04-30T08:50:09.624Z,11.56
2019-04-30T08:51:21.849Z,11.65
2019-04-30T08:52:35.740Z,11.93
2019-04-30T08:53:48.592Z,12.1
2019-04-30T08:55:12.555Z,12.44
2019-04-30T08:56:29.509Z,12.86
2019-04-30T08:57:41.929Z,13.19
2019-04-30T08:58:54.889Z,13.64
2019-04-30T09:00:07.002Z,14.16
2019-04-30T09:01:21.904Z,14.89
2019-04-30T09:02:31.493Z,15.18
2019-04-30T09:03:41.767Z,15.75
2019-04-30T09:04:51.937Z,16
2019-04-30T09:06:05.334Z,16.21
2019-04-30T09:07:16.476Z,16.49
2019-04-30T09:08:27.147Z,16.8
2019-04-30T09:09:38.948Z,17.1
2019-04-30T09:10:54.023Z,17.39
2019-04-30T09:12:04.837Z,17.66
2019-04-30T09:13:15.214Z,18.15
2019-04-30T09:14:27.062Z,18.67
2019-04-30T09:15:37.301Z,19.05
2019-04-30T09:16:49.452Z,19.37
2019-04-30T09:18:12.737Z,19.55
2019-04-30T09:19:26.123Z,19.75
2019-04-30T09:20:39.064Z,19.87
2019-04-30T09:21:51.360Z,20.11
2019-04-30T09:23:02.077Z,20.49
2019-04-30T09:24:14.293Z,20.73
2019-04-30T09:25:24.189Z,20.83
2019-04-30T09:26:36.071Z,21.1
2019-04-30T09:27:48.583Z,20.95
2019-04-30T09:28:59.272Z,20.85
2019-04-30T09:30:12.705Z,20.89
2019-04-30T09:31:24.689Z,21.26
2019-04-30T09:32:34.801Z,21.38
2019-04-30T09:33:46.309Z,21.45
2019-04-30T09:34:58.703Z,21.58
2019-04-30T09:36:09.213Z,21.75
2019-04-30T09:37:21.049Z,22.21
2019-04-30T09:38:31.521Z,22.34
2019-04-30T09:39:41.779Z,22.63
2019-04-30T09:40:53.108Z,22.89
2019-04-30T09:42:04.756Z,23.02
2019-04-30T09:43:18.267Z,23.21
2019-04-30T09:44:30.360Z,23.44
2019-04-30T09:45:40.987Z,23.48
2019-04-30T09:46:51.419Z,23.56
2019-04-30T09:48:01.702Z,23.73
2019-04-30T09:49:12.081Z,23.81
2019-04-30T09:50:23.655Z,23.91
2019-04-30T09:51:36.300Z,23.79
2019-04-30T09:52:49.646Z,23.51
2019-04-30T09:54:06.531Z,23.86
2019-04-30T09:55:21.568Z,24.14
2019-04-30T09:56:31.713Z,24.11
2019-04-30T09:57:43.729Z,24.37
2019-04-30T09:58:53.907Z,24.24
2019-04-30T10:00:05.469Z,24.19
2019-04-30T10:01:17.302Z,24.34
2019-04-30T10:02:31.573Z,24.28
2019-04-30T10:03:44.421Z,24.36
2019-04-30T10:04:59.482Z,24.32
2019-04-30T10:06:11.455Z,24.51
2019-04-30T10:07:22.059Z,24.78
2019-04-30T10:08:45.977Z,24.66
2019-04-30T10:09:59.164Z,24.53
2019-04-30T10:11:09.711Z,24.44
2019-04-30T10:12:21.908Z,24.78
2019-04-30T10:13:31.634Z,24.86
2019-04-30T10:14:43.477Z,25.03
2019-04-30T10:15:55.062Z,25.34
2019-04-30T10:17:05.985Z,25.74
2019-04-30T10:18:16.963Z,24.99
2019-04-30T10:19:26.674Z,24.69
2019-04-30T10:20:36.932Z,24.77
2019-04-30T10:21:48.774Z,24.89
2019-04-30T10:22:59.606Z,25
2019-04-30T10:24:19.758Z,25.51
2019-04-30T10:25:29.755Z,25.78
2019-04-30T10:26:39.463Z,25.74
2019-04-30T10:27:49.745Z,25.91
2019-04-30T10:28:59.612Z,26.19
2019-04-30T10:30:11.763Z,26.61
2019-04-30T10:31:23.801Z,26.66
2019-04-30T10:32:34.907Z,27.01
2019-04-30T10:33:44.879Z,27.34
2019-04-30T10:34:55.981Z,27.53
2019-04-30T10:36:05.969Z,27.63
2019-04-30T10:37:18.881Z,27.72
2019-04-30T10:38:29.310Z,27.75
2019-04-30T10:39:41.377Z,27.79
2019-04-30T10:40:53.499Z,27.58
2019-04-30T10:42:04.047Z,27.47
2019-04-30T10:43:14.014Z,27.19
2019-04-30T10:44:25.059Z,27.08
2019-04-30T10:45:35.155Z,27.38
2019-04-30T10:46:46.547Z,27.43
2019-04-30T10:47:56.550Z,27.73
2019-04-30T10:49:08.877Z,27.83
2019-04-30T10:50:18.996Z,27.88
2019-04-30T10:51:28.856Z,27.45
2019-04-30T10:52:39.367Z,27.47
2019-04-30T10:53:53.191Z,27.48
2019-04-30T10:55:07.028Z,27.66
2019-04-30T10:56:19.128Z,27.72
2019-04-30T10:57:30.959Z,27.95
2019-04-30T10:58:40.705Z,27.57
2019-04-30T10:59:51.154Z,27.58
2019-04-30T11:01:04.118Z,27.41
2019-04-30T11:02:14.641Z,26.64
2019-04-30T11:03:29.101Z,25.95
2019-04-30T11:04:39.222Z,25.24
2019-04-30T11:05:51.154Z,25.49
2019-04-30T11:07:02.903Z,25.49
2019-04-30T11:08:13.981Z,25.95
2019-04-30T11:09:23.720Z,26.24
2019-04-30T11:10:35.850Z,26.42
2019-04-30T11:11:49.518Z,26.33
2019-04-30T11:12:59.725Z,26.34
2019-04-30T11:14:09.678Z,25.99
2019-04-30T11:15:23.080Z,26.01
2019-04-30T11:16:34.610Z,26.23
2019-04-30T11:17:45.197Z,25.88
2019-04-30T11:18:59.074Z,26.04
2019-04-30T11:20:10.373Z,26.41
2019-04-30T11:21:22.481Z,26.96
2019-04-30T11:22:35.222Z,26.71
2019-04-30T11:23:46.271Z,26.93
2019-04-30T11:25:05.427Z,27.22
2019-04-30T11:26:19.625Z,27.6
2019-04-30T11:27:34.133Z,27.91
2019-04-30T11:28:47.012Z,28.27
2019-04-30T11:30:17.424Z,28.12
2019-04-30T11:31:34.857Z,27.86
2019-04-30T11:32:45.980Z,27.53
2019-04-30T11:33:56.364Z,27.58
2019-04-30T11:35:06.367Z,27.93
2019-04-30T11:36:16.063Z,28.16
2019-04-30T11:37:27.024Z,27.34
2019-04-30T11:38:38.727Z,27.61
2019-04-30T11:39:48.563Z,27.83
2019-04-30T11:40:58.493Z,28.19
2019-04-30T11:42:08.486Z,28.45
2019-04-30T11:43:20.116Z,28.65
2019-04-30T11:44:35.820Z,28.68
2019-04-30T11:45:47.850Z,29
2019-04-30T11:46:59.395Z,29.18
2019-04-30T11:48:09.292Z,29.34
2019-04-30T11:49:19.215Z,28.75
2019-04-30T11:50:32.241Z,29.03
2019-04-30T11:51:44.048Z,29.16
2019-04-30T11:53:05.779Z,29.49
2019-04-30T11:54:35.833Z,29.68
2019-04-30T11:56:01.562Z,29.69
2019-04-30T11:57:13.620Z,29.74
2019-04-30T11:58:30.232Z,29.92
2019-04-30T11:59:42.024Z,29.95
2019-04-30T12:00:54.206Z,29.96
2019-04-30T12:02:04.539Z,30.16
2019-04-30T12:03:14.280Z,30.48
2019-04-30T12:04:24.660Z,30.58
2019-04-30T12:05:35.188Z,30.44
2019-04-30T12:06:46.340Z,30.49
2019-04-30T12:07:56.348Z,30.24
2019-04-30T12:09:08.978Z,29.99
2019-04-30T12:10:19.467Z,29.87
2019-04-30T12:11:29.302Z,29.96
2019-04-30T12:12:41.182Z,29.83
2019-04-30T12:13:51.250Z,29.94
2019-04-30T12:15:04.940Z,29.99
2019-04-30T12:16:18.438Z,29.64
2019-04-30T12:17:28.623Z,29.39
2019-04-30T12:18:38.348Z,29.39
2019-04-30T12:19:48.816Z,29.52
2019-04-30T12:20:58.662Z,29.64
2019-04-30T12:22:08.640Z,29.67
2019-04-30T12:23:18.980Z,29.96
2019-04-30T12:24:30.359Z,30.06
2019-04-30T12:25:41.357Z,29.73
2019-04-30T12:26:53.677Z,29.71
2019-04-30T12:28:04.480Z,29.83
2019-04-30T12:29:16.085Z,29.94
2019-04-30T12:30:28.561Z,29.94
2019-04-30T12:31:38.937Z,30.16
2019-04-30T12:32:49.326Z,30.38
2019-04-30T12:33:59.395Z,30.51
2019-04-30T12:35:09.376Z,30.54
2019-04-30T12:36:21.285Z,30.73
2019-04-30T12:37:31.500Z,30.89
2019-04-30T12:38:41.490Z,30.96
2019-04-30T12:39:51.913Z,30.99
2019-04-30T12:41:01.636Z,30.89
2019-04-30T12:42:13.538Z,31.11
2019-04-30T12:43:23.974Z,31.1
2019-04-30T12:44:33.968Z,31.22
2019-04-30T12:45:45.116Z,31.17
2019-04-30T12:47:12.139Z,30.8
2019-04-30T12:48:25.017Z,30.52
2019-04-30T12:49:36.917Z,29.99
2019-04-30T12:50:49.107Z,30.02
2019-04-30T12:52:01.137Z,30.27
2019-04-30T12:53:11.852Z,29.61
2019-04-30T12:54:21.329Z,29.34
2019-04-30T12:55:31.822Z,29.53
2019-04-30T12:56:41.841Z,29.64
2019-04-30T12:58:04.098Z,29.76
2019-04-30T12:59:14.902Z,29.44
2019-04-30T13:00:24.866Z,29.25
2019-04-30T13:01:43.047Z,29.57
2019-04-30T13:02:54.604Z,29.61
2019-04-30T13:04:06.348Z,29.65
2019-04-30T13:05:18.813Z,29.67
2019-04-30T13:06:30.365Z,29.69
2019-04-30T13:07:45.752Z,29.84
2019-04-30T13:09:03.080Z,29.87
2019-04-30T13:10:18.460Z,29.79
2019-04-30T13:11:33.670Z,29.98
2019-04-30T13:12:48.262Z,29.95
2019-04-30T13:14:03.300Z,30.16
2019-04-30T13:15:16.791Z,29.96
2019-04-30T13:16:26.275Z,30.05
2019-04-30T13:17:36.918Z,30.08
2019-04-30T13:18:46.883Z,30.06
2019-04-30T13:19:57.083Z,30.1
2019-04-30T13:21:08.535Z,30.14
2019-04-30T13:22:18.933Z,29.89
2019-04-30T13:23:29.764Z,29.99
2019-04-30T13:24:42.085Z,30.05
2019-04-30T13:25:56.154Z,30.03
2019-04-30T13:27:09.411Z,30.21
2019-04-30T13:28:19.253Z,30.48
2019-04-30T13:29:29.215Z,30.56
2019-04-30T13:30:39.566Z,30.58
2019-04-30T13:31:52.657Z,30.2
2019-04-30T13:33:03.908Z,30.05
2019-04-30T13:34:14.566Z,30.11
2019-04-30T13:35:26.366Z,30.17
2019-04-30T13:36:36.437Z,29.86
2019-04-30T13:37:48.906Z,29.83
2019-04-30T13:38:59.457Z,29.71
2019-04-30T13:40:09.327Z,29.77
2019-04-30T13:41:21.097Z,29.76
2019-04-30T13:42:31.836Z,29.77
2019-04-30T13:43:44.907Z,29.64
2019-04-30T13:44:56.342Z,29.47
2019-04-30T13:46:06.061Z,29.39
2019-04-30T13:47:16.298Z,29.1
2019-04-30T13:48:26.893Z,29.1
2019-04-30T13:49:36.614Z,29.03
2019-04-30T13:50:47.197Z,28.86
2019-04-30T13:51:57.172Z,28.86
2019-04-30T13:53:08.668Z,28.94
2019-04-30T13:54:18.647Z,28.93
2019-04-30T13:55:29.330Z,28.9
2019-04-30T13:56:54.190Z,28.92
2019-04-30T13:58:04.191Z,28.87
2019-04-30T13:59:14.171Z,28.78
2019-04-30T14:00:24.138Z,28.84
2019-04-30T14:01:35.021Z,28.97
2019-04-30T14:02:49.633Z,29.07
2019-04-30T14:04:01.561Z,29.1
2019-04-30T14:05:11.551Z,28.97
2019-04-30T14:06:21.532Z,28.96
2019-04-30T14:07:31.507Z,28.97
2019-04-30T14:08:43.595Z,28.77
2019-04-30T14:09:54.946Z,28.6
2019-04-30T14:11:04.921Z,28.5
2019-04-30T14:12:16.756Z,28.31
2019-04-30T14:13:26.751Z,28.04
2019-04-30T14:14:36.477Z,27.93
2019-04-30T14:15:46.947Z,27.68
2019-04-30T14:16:58.652Z,27.71
2019-04-30T14:18:11.567Z,27.52
2019-04-30T14:19:34.374Z,27.37
2019-04-30T14:20:44.363Z,27.15
2019-04-30T14:21:54.346Z,26.6
2019-04-30T14:23:04.254Z,26.41
2019-04-30T14:24:19.261Z,26.29
2019-04-30T14:25:29.297Z,26.23
2019-04-30T14:26:39.193Z,26.24
2019-04-30T14:27:59.139Z,26.18
2019-04-30T14:29:09.042Z,26.07
2019-04-30T14:30:19.207Z,26.04
2019-04-30T14:31:31.308Z,25.92
2019-04-30T14:32:42.089Z,25.81
2019-04-30T14:33:52.054Z,25.73
2019-04-30T14:35:03.738Z,25.68
2019-04-30T14:36:14.409Z,25.48
2019-04-30T14:37:24.697Z,25.59
2019-04-30T14:38:40.338Z,25.68
2019-04-30T14:39:52.001Z,25.78
2019-04-30T14:41:07.513Z,25.81
2019-04-30T14:42:24.296Z,25.8
2019-04-30T14:43:41.539Z,25.8
2019-04-30T14:44:59.241Z,25.78
2019-04-30T14:46:13.093Z,25.77
2019-04-30T14:47:30.648Z,25.92
2019-04-30T14:48:50.741Z,25.93
2019-04-30T14:50:12.203Z,25.92
2019-04-30T14:51:23.805Z,26.03
2019-04-30T14:52:34.173Z,26.34
2019-04-30T14:53:45.590Z,26.42
2019-04-30T14:54:58.643Z,26.46
2019-04-30T14:56:16.237Z,26.67
2019-04-30T14:57:27.331Z,26.79
2019-04-30T14:58:39.182Z,26.86
2019-04-30T14:59:51.061Z,26.89
2019-04-30T15:01:01.790Z,27.01
2019-04-30T15:02:13.673Z,27.04
2019-04-30T15:03:24.489Z,26.98
2019-04-30T15:04:34.800Z,26.98
2019-04-30T15:05:54.129Z,26.88
2019-04-30T15:07:04.307Z,26.78
2019-04-30T15:08:14.969Z,26.6
2019-04-30T15:09:27.033Z,26.42
2019-04-30T15:10:36.997Z,26.24
2019-04-30T15:11:48.634Z,26.13
2019-04-30T15:13:00.176Z,26.03
2019-04-30T15:14:10.561Z,25.88
2019-04-30T15:15:21.668Z,25.95
2019-04-30T15:16:31.645Z,26.01
2019-04-30T15:17:43.722Z,26.01
2019-04-30T15:18:54.374Z,26.11
2019-04-30T15:20:04.338Z,25.96
2019-04-30T15:21:16.369Z,25.85
2019-04-30T15:22:26.332Z,25.81
2019-04-30T15:23:36.764Z,25.86
2019-04-30T15:24:46.500Z,25.77
2019-04-30T15:25:58.507Z,25.78
2019-04-30T15:27:09.197Z,25.73
2019-04-30T15:28:18.814Z,25.68
2019-04-30T15:29:29.086Z,25.66
2019-04-30T15:30:42.042Z,25.61
2019-04-30T15:31:54.044Z,25.66
2019-04-30T15:33:04.635Z,25.48
2019-04-30T15:34:15.976Z,25.46
2019-04-30T15:35:26.697Z,25.46
2019-04-30T15:36:36.665Z,25.39
2019-04-30T15:37:48.560Z,25.24
2019-04-30T15:38:58.615Z,25.16
2019-04-30T15:40:09.043Z,25.19
2019-04-30T15:41:18.853Z,25.16
2019-04-30T15:42:28.820Z,25.16
2019-04-30T15:43:38.788Z,25.03
2019-04-30T15:44:52.124Z,25.01
2019-04-30T15:46:02.147Z,24.94
2019-04-30T15:47:13.886Z,24.81
2019-04-30T15:48:27.193Z,24.86
2019-04-30T15:49:36.905Z,24.62
2019-04-30T15:50:46.632Z,24.71
2019-04-30T15:51:57.014Z,24.78
2019-04-30T15:53:06.475Z,24.86
2019-04-30T15:54:18.959Z,24.84
2019-04-30T15:55:29.068Z,24.84
2019-04-30T15:56:46.392Z,24.84
2019-04-30T15:57:56.637Z,25.01
2019-04-30T15:59:08.792Z,24.74
2019-04-30T16:00:21.137Z,24.68
2019-04-30T16:01:31.508Z,24.5
2019-04-30T16:02:57.393Z,24.4
2019-04-30T16:04:09.911Z,24.34
2019-04-30T16:05:19.633Z,24.4
2019-04-30T16:06:31.002Z,24.5
2019-04-30T16:07:42.847Z,24.46